Weather observations for the past three days for
Friday Harbor Airport
Metric (Imperial)
Date Time (pdt) Wind (kph) Vis. (km) Weather Sky Cond. Temperature (ºC) Relative Humidity Wind Chill (°C) Heat Index (°C) Pressure Precipitation (cm)
Air Dwpt 6 hour altimeter (cm) sea level (mb) 1 hr 3 hr 6 hr
Max. Min.
03 23:53 Calm 16.09 Fair CLR 12.8 5.6 62% 75.72 1009.4
03 22:53 Calm 16.09 Fair CLR 12.8 6.1 25.6 12.2 64% 75.72 1009.5
03 21:53 Calm 16.09 Fair CLR 13.3 6.1 62% 75.74 1009.7
03 20:53 Calm 16.09 Fair CLR 13.9 7.8 67% 75.74 1009.7
03 19:53 Calm 16.09 Fair CLR 16.7 7.2 54% 75.74 1009.6
03 18:53 Calm 16.09 Fair CLR 21.1 8.3 44% 75.77 1009.9
03 17:53 Vrbl 6 16.09 Fair CLR 25 4.4 26% 25 75.79 1010.3
03 16:53 Calm 16.09 Fair CLR 24.4 5.6 24.4 20 30% 25 75.84 1011.0
03 15:53 N 15 G 30 16.09 Fair CLR 23.9 5.6 31% 25 75.9 1011.7
03 14:53 Vrbl 11 16.09 Fair CLR 23.3 6.7 34% 75.95 1012.4
03 13:53 N 15 16.09 Fair CLR 22.2 8.3 41% 76 1013.1
03 12:53 N 24 16.09 Fair CLR 21.7 7.8 41% 76.05 1013.8
03 11:53 N 11 16.09 Fair CLR 22.2 8.9 43% 76.07 1014.1
03 10:53 N 13 16.09 Fair CLR 20 7.8 20 12.2 45% 76.12 1014.8
03 09:53 N 15 16.09 Fair CLR 18.3 8.3 52% 76.15 1015.3
03 08:53 N 13 16.09 Fair CLR 17.8 8.9 56% 76.17 1015.6
03 07:53 N 17 G 30 16.09 Fair CLR 17.2 8.9 58% 76.17 1015.6
03 06:53 N 13 16.09 Fair CLR 15 8.9 67% 76.15 1015.1
03 05:53 N 7 16.09 Fair CLR 13.3 8.3 72% 76.12 1014.8
03 04:53 Calm 16.09 Fair CLR 12.8 7.8 15 10.6 72% 76.15 1015.0
03 03:53 Vrbl 6 16.09 Fair CLR 13.3 8.3 72% 76.15 1015.1
03 02:53 Calm 16.09 Fair CLR 11.7 7.2 74% 76.12 1014.8
03 01:53 Calm 16.09 Fair CLR 11.7 6.1 69% 76.12 1014.9
03 00:53 Calm 16.09 Fair CLR 12.2 7.2 72% 76.12 1014.8
02 23:53 Calm 16.09 Fair CLR 12.2 7.2 72% 76.12 1014.7
02 22:53 W 7 16.09 Fair CLR 14.4 6.1 22.8 11.7 58% 76.1 1014.6
02 21:53 Calm 16.09 Fair CLR 12.2 8.3 77% 76.1 1014.7
02 20:53 Calm 16.09 Fair CLR 13.9 8.9 72% 76.07 1014.1
02 19:53 Calm 16.09 Fair CLR 15.6 8.3 62% 76.05 1013.8
02 18:53 N 6 16.09 Fair CLR 21.7 6.7 38% 76.05 1013.8
02 17:53 N 11 16.09 Fair CLR 22.2 7.8 40% 76.07 1014.3
02 16:53 Vrbl 9 16.09 Fair CLR 22.2 6.7 22.2 16.1 37% 76.1 1014.7
02 15:53 Vrbl 11 G 28 16.09 Fair CLR 22.2 6.7 37% 76.17 1015.4
02 14:53 N 19 16.09 Fair CLR 20.6 7.8 44% 76.23 1016.2
02 13:53 N 19 G 28 16.09 Fair CLR 20.6 8.9 47% 76.28 1016.8
02 12:53 N 20 G 31 16.09 Fair CLR 18.9 9.4 54% 76.3 1017.4
02 11:53 NE 11 16.09 Fair CLR 17.8 10.6 63% 76.35 1017.8
02 10:53 N 17 16.09 Fair CLR 16.1 9.4 16.1 6.7 65% 76.35 1018.1
02 09:53 N 19 G 28 16.09 A Few Clouds FEW120 13.9 9.4 74% 76.38 1018.3
02 08:53 Calm 16.09 Fair CLR 14.4 10 75% 76.38 1018.3
02 07:53 Calm 16.09 Overcast OVC100 10.6 9.4 92% 76.35 1018.0
02 06:53 Calm 14.48 Overcast OVC100 9.4 8.9 97% 76.35 1017.8
02 05:53 S 6 16.09 Partly Cloudy SCT110 7.8 7.2 96% 76.33 1017.6
02 04:53 Calm 16.09 Fair CLR 7.2 7.2 10 7.2 100% 76.3 1017.3
02 03:53 Calm 16.09 Fair CLR 8.3 7.8 97% 76.28 1017.0
02 02:53 Calm 16.09 Mostly Cloudy BKN100 8.3 7.8 97% 76.28 1016.9
02 01:53 Calm 16.09 Mostly Cloudy BKN100 8.9 8.3 96% 76.28 1016.8
02 00:53 Calm 16.09 Mostly Cloudy BKN110 9.4 8.3 93% 76.25 1016.6
01 23:53 Calm 16.09 Mostly Cloudy BKN100 9.4 8.3 93% 76.25 1016.5
01 22:53 Calm 16.09 A Few Clouds FEW120 10 8.3 18.3 9.4 89% 76.23 1016.1
01 21:53 Calm 16.09 Partly Cloudy SCT120 10 8.3 89% 76.2 1016.0
01 20:53 Calm 16.09 Fair CLR 11.1 8.9 86% 76.17 1015.6
01 19:53 Calm 16.09 Fair CLR 12.8 9.4 80% 76.15 1015.1
01 18:53 W 6 16.09 Fair CLR 16.7 8.9 60% 76.15 1015.1
01 17:53 W 9 16.09 Fair CLR 18.3 8.9 54% 76.15 1015.3
01 16:53 Vrbl 11 16.09 Partly Cloudy SCT100 18.3 9.4 19.4 13.9 56% 76.17 1015.6
01 15:53 SW 11 16.09 Fair CLR 18.3 9.4 56% 76.2 1016.0
01 14:53 Vrbl 6 16.09 Fair CLR 19.4 11.7 61% 76.25 1016.5
01 13:53 SE 7 16.09 Fair CLR 17.2 11.1 68% 76.28 1016.8
01 12:53 SE 9 16.09 Fair CLR 16.7 11.1 70% 76.3 1017.1
01 11:53 SE 7 16.09 Fair CLR 15 10 72% 76.33 1017.5
01 10:53 E 6 16.09 Fair CLR 14.4 10 14.4 7.2 75% 76.33 1017.7
01 09:53 SE 6 16.09 Fair CLR 13.3 9.4 77% 76.35 1017.8
01 08:53 Calm 16.09 Fair CLR 12.2 8.9 80% 76.35 1017.9
01 07:53 Calm 16.09 Fair CLR 10.6 8.9 89% 76.33 1017.6
01 06:53 Calm 16.09 Fair CLR 8.3 7.8 97% 76.3 1017.1
01 05:53 Calm 16.09 Fair CLR 7.8 7.2 96% 76.25 1016.7
01 04:53 Calm 16.09 Fair CLR 7.2 7.2 11.1 7.2 100% 76.25 1016.6
01 03:53 W 6 16.09 Fair CLR 7.8 7.2 96% 76.25 1016.4
01 02:53 Calm 16.09 Fair CLR 7.8 7.2 96% 76.25 1016.4
01 01:53 Calm 16.09 Fair CLR 8.3 7.2 93% 76.25 1016.6
01 00:53 Calm 16.09 Fair CLR 8.9 7.8 93% 76.25 1016.6
Date Time (pdt) Wind (kph) Vis. (km) Weather Sky Cond. Air Dwpt Max. Min. Relative Humidity Wind Chill (°C) Heat Index (°C) altimeter (cm) sea level (mb) 1 hr 3 hr 6 hr
6 hour
Temperature (ºC) Pressure Precipitation (cm)